createdAt,value
2019-03-24T00:00:11.385Z,14.07
2019-03-24T00:02:40.725Z,18.97
2019-03-24T00:05:09.939Z,13.63
2019-03-24T00:07:39.166Z,14.70
2019-03-24T00:10:08.614Z,17.97
2019-03-24T00:12:37.810Z,15.07
2019-03-24T00:15:07.944Z,17.43
2019-03-24T00:17:37.144Z,23.90
2019-03-24T00:20:07.106Z,20.27
2019-03-24T00:22:36.365Z,20.43
2019-03-24T00:25:06.918Z,20.43
2019-03-24T00:27:36.137Z,17.93
2019-03-24T00:30:08.068Z,17.67
2019-03-24T00:32:37.392Z,16.67
2019-03-24T00:35:07.789Z,17.67
2019-03-24T00:37:36.955Z,14.33
2019-03-24T00:40:07.760Z,21.70
2019-03-24T00:42:37.147Z,24.93
2019-03-24T00:45:09.225Z,29.00
2019-03-24T00:47:38.556Z,25.43
2019-03-24T00:50:08.375Z,20.77
2019-03-24T00:52:37.552Z,24.83
2019-03-24T00:55:07.509Z,19.90
2019-03-24T00:57:37.690Z,25.17
2019-03-24T01:00:10.006Z,17.63
2019-03-24T01:02:39.204Z,21.63
2019-03-24T01:05:08.924Z,23.03
2019-03-24T01:07:38.119Z,13.97
2019-03-24T01:10:09.234Z,18.77
2019-03-24T01:12:38.437Z,20.13
2019-03-24T01:15:08.623Z,19.50
2019-03-24T01:17:38.748Z,16.67
2019-03-24T01:20:08.472Z,19.67
2019-03-24T01:22:37.722Z,27.30
2019-03-24T01:25:07.008Z,11.73
2019-03-24T01:27:36.190Z,19.80
2019-03-24T01:30:07.642Z,18.53
2019-03-24T01:32:36.821Z,11.83
2019-03-24T01:35:06.835Z,16.27
2019-03-24T01:37:36.061Z,16.63
2019-03-24T01:40:06.773Z,14.97
2019-03-24T01:42:35.947Z,21.20
2019-03-24T01:45:12.405Z,25.13
2019-03-24T01:47:41.589Z,22.33
2019-03-24T01:50:10.949Z,17.13
2019-03-24T01:52:40.153Z,23.70
2019-03-24T01:55:09.505Z,18.83
2019-03-24T01:57:38.728Z,24.43
2019-03-24T02:00:08.680Z,17.07
2019-03-24T02:02:37.799Z,22.03
2019-03-24T02:05:07.221Z,16.63
2019-03-24T02:07:36.411Z,21.60
2019-03-24T02:10:08.233Z,22.37
2019-03-24T02:12:37.430Z,15.80
2019-03-24T02:15:08.613Z,22.50
2019-03-24T02:17:37.795Z,14.57
2019-03-24T02:20:08.140Z,15.03
2019-03-24T02:22:37.314Z,17.63
2019-03-24T02:25:07.467Z,26.43
2019-03-24T02:27:36.679Z,21.40
2019-03-24T02:30:07.614Z,15.53
2019-03-24T02:32:36.862Z,16.27
2019-03-24T02:35:07.513Z,16.33
2019-03-24T02:37:36.987Z,20.13
2019-03-24T02:40:08.005Z,22.77
2019-03-24T02:42:37.183Z,19.63
2019-03-24T02:45:07.414Z,20.60
2019-03-24T02:47:36.675Z,19.97
2019-03-24T02:50:07.479Z,17.87
2019-03-24T02:52:36.653Z,25.70
2019-03-24T02:55:07.196Z,27.43
2019-03-24T02:57:36.392Z,21.80
2019-03-24T03:00:09.482Z,22.57
2019-03-24T03:02:38.746Z,20.53
2019-03-24T03:05:09.066Z,25.07
2019-03-24T03:07:38.245Z,20.97
2019-03-24T03:10:08.227Z,12.30
2019-03-24T03:12:37.390Z,19.20
2019-03-24T03:15:08.791Z,19.70
2019-03-24T03:17:37.957Z,19.83
2019-03-24T03:20:08.574Z,21.07
2019-03-24T03:22:37.756Z,22.13
2019-03-24T03:25:10.899Z,25.50
2019-03-24T03:27:40.105Z,20.03
2019-03-24T03:30:09.866Z,17.27
2019-03-24T03:32:39.000Z,16.63
2019-03-24T03:35:08.856Z,23.17
2019-03-24T03:37:38.014Z,14.97
2019-03-24T03:40:08.933Z,24.53
2019-03-24T03:42:39.370Z,16.37
2019-03-24T03:45:10.189Z,21.93
2019-03-24T03:47:40.063Z,21.53
2019-03-24T03:50:10.076Z,21.90
2019-03-24T03:52:39.276Z,17.60
2019-03-24T03:55:08.653Z,17.53
2019-03-24T03:57:37.858Z,15.60
2019-03-24T04:00:09.340Z,19.63
2019-03-24T04:02:38.521Z,20.40
2019-03-24T04:05:07.857Z,23.67
2019-03-24T04:07:37.083Z,20.80
2019-03-24T04:10:07.169Z,19.97
2019-03-24T04:12:36.286Z,20.37
2019-03-24T04:15:07.113Z,20.90
2019-03-24T04:17:36.308Z,19.03
2019-03-24T04:20:06.639Z,22.47
2019-03-24T04:22:35.826Z,18.13
2019-03-24T04:25:06.672Z,31.87
2019-03-24T04:27:35.863Z,20.87
2019-03-24T04:30:06.710Z,22.60
2019-03-24T04:32:35.888Z,17.43
2019-03-24T04:35:08.904Z,16.37
2019-03-24T04:37:38.090Z,29.83
2019-03-24T04:40:08.302Z,18.70
2019-03-24T04:42:37.500Z,24.50
2019-03-24T04:45:07.217Z,21.13
2019-03-24T04:47:36.392Z,26.03
2019-03-24T04:50:07.808Z,17.93
2019-03-24T04:52:37.055Z,21.40
2019-03-24T04:55:08.255Z,26.23
2019-03-24T04:57:37.526Z,26.03
2019-03-24T05:00:08.840Z,26.67
2019-03-24T05:02:38.025Z,20.13
2019-03-24T05:05:08.469Z,22.83
2019-03-24T05:07:38.425Z,19.37
2019-03-24T05:10:09.100Z,21.30
2019-03-24T05:12:38.285Z,21.17
2019-03-24T05:15:07.613Z,18.40
2019-03-24T05:17:36.783Z,21.17
2019-03-24T05:20:07.028Z,29.60
2019-03-24T05:22:37.075Z,21.93
2019-03-24T05:25:06.468Z,16.87
2019-03-24T05:27:35.652Z,17.93
2019-03-24T05:30:06.659Z,16.50
2019-03-24T05:32:35.882Z,22.40
2019-03-24T05:35:07.273Z,24.90
2019-03-24T05:37:36.463Z,18.53
2019-03-24T05:40:06.776Z,21.63
2019-03-24T05:42:35.963Z,20.20
2019-03-24T05:45:10.001Z,18.50
2019-03-24T05:47:39.183Z,23.20
2019-03-24T05:50:08.712Z,17.60
2019-03-24T05:52:37.891Z,16.60
2019-03-24T05:55:07.372Z,13.40
2019-03-24T05:57:36.549Z,23.60
2019-03-24T06:00:08.218Z,14.07
2019-03-24T06:02:37.494Z,24.13
2019-03-24T06:05:06.945Z,19.17
2019-03-24T06:07:36.095Z,17.33
2019-03-24T06:10:08.218Z,22.20
2019-03-24T06:12:37.411Z,19.77
2019-03-24T06:15:08.414Z,19.27
2019-03-24T06:17:47.160Z,16.37
2019-03-24T06:20:08.730Z,20.83
2019-03-24T06:22:37.935Z,16.37
2019-03-24T06:25:07.566Z,17.50
2019-03-24T06:27:36.925Z,19.93
2019-03-24T06:30:08.480Z,23.00
2019-03-24T06:32:37.675Z,23.43
2019-03-24T06:35:07.802Z,28.10
2019-03-24T06:37:37.035Z,27.10
2019-03-24T06:40:07.641Z,17.97
2019-03-24T06:42:36.885Z,14.67
2019-03-24T06:45:08.047Z,17.63
2019-03-24T06:47:37.229Z,16.13
2019-03-24T06:50:24.861Z,20.57
2019-03-24T06:53:12.214Z,22.47
2019-03-24T06:55:41.412Z,23.63
2019-03-24T06:58:10.667Z,17.63
2019-03-24T07:00:39.857Z,24.27
2019-03-24T07:03:09.038Z,18.17
2019-03-24T07:05:38.441Z,22.57
2019-03-24T07:08:07.734Z,16.70
2019-03-24T07:10:36.932Z,17.77
2019-03-24T07:13:06.118Z,19.47
2019-03-24T07:15:35.301Z,13.93
2019-03-24T07:18:08.492Z,19.90
2019-03-24T07:20:35.403Z,20.50
2019-03-24T07:23:04.648Z,24.17
2019-03-24T07:25:33.832Z,14.57
2019-03-24T07:28:03.025Z,18.27
2019-03-24T07:30:32.212Z,14.90
2019-03-24T07:33:01.401Z,19.47
2019-03-24T07:35:30.598Z,15.63
2019-03-24T07:37:59.783Z,17.40
2019-03-24T07:40:28.980Z,17.27
2019-03-24T07:42:58.158Z,17.17
2019-03-24T07:45:27.363Z,15.27
2019-03-24T07:47:56.572Z,17.53
2019-03-24T07:50:25.762Z,12.37
2019-03-24T07:52:54.969Z,10.50
2019-03-24T07:55:24.136Z,22.57
2019-03-24T07:57:53.315Z,11.67
2019-03-24T08:00:33.871Z,14.07
2019-03-24T08:03:03.192Z,18.17
2019-03-24T08:05:32.453Z,13.37
2019-03-24T08:08:01.650Z,10.93
2019-03-24T08:10:30.833Z,11.73
2019-03-24T08:13:00.032Z,13.03
2019-03-24T08:15:29.207Z,9.67
2019-03-24T08:17:58.398Z,11.80
2019-03-24T08:20:27.588Z,14.97
2019-03-24T08:22:56.791Z,18.80
2019-03-24T08:25:25.996Z,12.73
2019-03-24T08:27:55.189Z,13.13
2019-03-24T08:30:35.412Z,21.10
2019-03-24T08:33:05.636Z,11.67
2019-03-24T08:35:34.886Z,17.67
2019-03-24T08:38:04.760Z,14.67
2019-03-24T08:40:34.001Z,19.73
2019-03-24T08:43:03.251Z,13.00
2019-03-24T08:45:32.619Z,13.30
2019-03-24T08:48:01.875Z,17.87
2019-03-24T08:50:31.134Z,9.23
2019-03-24T08:53:00.368Z,14.53
2019-03-24T08:55:29.569Z,12.03
2019-03-24T08:57:58.782Z,10.63
2019-03-24T09:00:30.961Z,16.47
2019-03-24T09:02:58.863Z,14.77
2019-03-24T09:05:28.049Z,13.73
2019-03-24T09:07:57.274Z,10.67
2019-03-24T09:10:26.470Z,10.57
2019-03-24T09:12:55.682Z,15.43
2019-03-24T09:15:24.860Z,15.33
2019-03-24T09:17:54.098Z,10.10
2019-03-24T09:20:23.233Z,15.83
2019-03-24T09:22:52.438Z,12.57
2019-03-24T09:25:21.632Z,14.70
2019-03-24T09:27:50.789Z,13.50
2019-03-24T09:30:34.410Z,21.37
2019-03-24T09:33:03.837Z,16.20
2019-03-24T09:35:33.091Z,14.07
2019-03-24T09:38:02.408Z,12.33
2019-03-24T09:40:34.656Z,16.87
2019-03-24T09:43:05.311Z,16.13
2019-03-24T09:45:34.628Z,21.10
2019-03-24T09:48:04.544Z,12.90
2019-03-24T09:50:33.809Z,16.07
2019-03-24T09:53:03.223Z,15.60
2019-03-24T09:55:32.435Z,13.07
2019-03-24T09:58:01.630Z,14.10
2019-03-24T10:00:30.829Z,14.30
2019-03-24T10:03:00.386Z,13.07
2019-03-24T10:05:29.567Z,9.57
2019-03-24T10:07:58.693Z,10.80
2019-03-24T10:10:27.876Z,11.63
2019-03-24T10:12:57.056Z,14.73
2019-03-24T10:15:26.267Z,16.43
2019-03-24T10:17:55.430Z,12.60
2019-03-24T10:20:24.616Z,15.37
2019-03-24T10:22:53.816Z,14.63
2019-03-24T10:25:23.019Z,16.87
2019-03-24T10:27:52.200Z,13.20
2019-03-24T10:30:21.402Z,14.73
2019-03-24T10:32:50.594Z,13.77
2019-03-24T10:35:19.768Z,15.73
2019-03-24T10:37:48.975Z,10.60
2019-03-24T10:40:28.183Z,16.50
2019-03-24T10:42:49.164Z,12.77
2019-03-24T10:45:18.346Z,20.30
2019-03-24T10:47:47.526Z,13.80
2019-03-24T10:50:16.892Z,11.57
2019-03-24T10:52:46.073Z,12.37
2019-03-24T10:55:15.384Z,13.50
2019-03-24T10:57:44.555Z,15.30
2019-03-24T11:00:39.814Z,11.53
2019-03-24T11:03:27.028Z,14.70
2019-03-24T11:05:56.617Z,10.37
2019-03-24T11:08:25.817Z,15.43
2019-03-24T11:10:55.014Z,14.80
2019-03-24T11:13:24.188Z,10.87
2019-03-24T11:15:53.394Z,12.57
2019-03-24T11:18:22.569Z,14.47
2019-03-24T11:20:51.786Z,6.30
2019-03-24T11:23:20.945Z,12.40
2019-03-24T11:25:50.137Z,16.13
2019-03-24T11:28:19.411Z,12.73
2019-03-24T11:30:48.594Z,15.40
2019-03-24T11:33:17.812Z,10.17
2019-03-24T11:35:47.027Z,14.43
2019-03-24T11:38:16.203Z,10.47
2019-03-24T11:40:45.423Z,14.87
2019-03-24T11:43:14.649Z,9.90
2019-03-24T11:45:43.846Z,10.60
2019-03-24T11:48:13.038Z,10.87
2019-03-24T11:50:42.279Z,14.03
2019-03-24T11:53:11.490Z,9.17
2019-03-24T11:55:40.675Z,7.90
2019-03-24T11:58:09.852Z,14.23
2019-03-24T12:00:40.115Z,17.97
2019-03-24T12:03:09.342Z,14.57
2019-03-24T12:05:38.834Z,12.63
2019-03-24T12:08:08.463Z,12.57
2019-03-24T12:10:37.702Z,12.37
2019-03-24T12:13:06.899Z,6.63
2019-03-24T12:15:36.171Z,10.33
2019-03-24T12:18:05.425Z,9.40
2019-03-24T12:20:34.624Z,11.03
2019-03-24T12:23:03.947Z,6.57
2019-03-24T12:25:33.224Z,10.03
2019-03-24T12:28:02.408Z,7.23
2019-03-24T12:30:31.587Z,7.97
2019-03-24T12:33:00.782Z,8.17
2019-03-24T12:35:29.965Z,11.33
2019-03-24T12:37:59.224Z,12.57
2019-03-24T12:40:28.482Z,9.67
2019-03-24T12:42:57.665Z,9.43
2019-03-24T12:45:26.899Z,9.73
2019-03-24T12:47:56.075Z,8.30
2019-03-24T12:50:31.320Z,11.27
2019-03-24T12:52:56.151Z,7.57
2019-03-24T12:55:25.338Z,7.97
2019-03-24T12:57:54.517Z,9.30
2019-03-24T13:00:35.538Z,10.03
2019-03-24T13:03:05.513Z,7.23
2019-03-24T13:05:34.783Z,10.77
2019-03-24T13:08:15.299Z,2.50
2019-03-24T13:10:45.518Z,7.83
2019-03-24T13:13:15.014Z,9.30
2019-03-24T13:15:44.252Z,9.67
2019-03-24T13:18:14.621Z,10.60
2019-03-24T13:20:44.271Z,9.97
2019-03-24T13:23:13.459Z,8.67
2019-03-24T13:25:42.810Z,9.30
2019-03-24T13:28:12.034Z,7.20
2019-03-24T13:30:41.235Z,9.83
2019-03-24T13:33:10.420Z,9.00
2019-03-24T13:35:39.778Z,4.80
2019-03-24T13:38:08.975Z,5.57
2019-03-24T13:40:38.238Z,5.93
2019-03-24T13:43:07.867Z,7.97
2019-03-24T13:45:37.121Z,5.23
2019-03-24T13:48:06.314Z,6.23
2019-03-24T13:50:35.491Z,7.67
2019-03-24T13:53:04.875Z,10.50
2019-03-24T13:55:34.120Z,9.27
2019-03-24T13:58:03.988Z,8.27
2019-03-24T14:00:33.168Z,9.13
2019-03-24T14:03:02.348Z,9.50
2019-03-24T14:05:31.524Z,6.73
2019-03-24T14:08:00.738Z,8.17
2019-03-24T14:10:29.935Z,5.77
2019-03-24T14:12:59.105Z,7.47
2019-03-24T14:15:28.278Z,9.83
2019-03-24T14:17:57.465Z,11.97
2019-03-24T14:20:26.665Z,10.93
2019-03-24T14:22:55.885Z,6.30
2019-03-24T14:25:25.068Z,4.93
2019-03-24T14:27:54.269Z,8.60
2019-03-24T14:30:29.173Z,9.67
2019-03-24T14:32:58.317Z,8.50
2019-03-24T14:35:27.490Z,9.40
2019-03-24T14:37:56.685Z,5.63
2019-03-24T14:40:25.876Z,8.63
2019-03-24T14:42:55.175Z,4.13
2019-03-24T14:45:24.352Z,8.27
2019-03-24T14:47:54.228Z,9.43
2019-03-24T14:50:23.463Z,8.37
2019-03-24T14:52:52.608Z,8.53
2019-03-24T14:55:21.808Z,10.13
2019-03-24T14:57:50.983Z,7.80
2019-03-24T15:00:34.614Z,7.17
2019-03-24T15:03:04.135Z,6.73
2019-03-24T15:05:33.615Z,10.33
2019-03-24T15:08:04.258Z,7.93
2019-03-24T15:10:34.108Z,9.20
2019-03-24T15:13:03.396Z,12.00
2019-03-24T15:15:32.578Z,8.33
2019-03-24T15:18:01.752Z,11.37
2019-03-24T15:20:31.003Z,6.97
2019-03-24T15:23:00.240Z,8.27
2019-03-24T15:25:29.445Z,7.47
2019-03-24T15:27:58.702Z,8.87
2019-03-24T15:30:27.879Z,7.70
2019-03-24T15:32:57.061Z,8.73
2019-03-24T15:35:26.233Z,9.43
2019-03-24T15:38:07.822Z,10.93
2019-03-24T15:40:26.336Z,7.00
2019-03-24T15:42:55.583Z,7.70
2019-03-24T15:45:24.764Z,8.97
2019-03-24T15:47:53.955Z,9.53
2019-03-24T15:50:23.197Z,8.13
2019-03-24T15:52:52.417Z,11.47
2019-03-24T15:55:21.595Z,11.60
2019-03-24T15:57:50.772Z,12.13
2019-03-24T16:00:25.589Z,6.97
2019-03-24T16:02:54.776Z,8.23
2019-03-24T16:05:23.989Z,7.40
2019-03-24T16:07:53.171Z,8.03
2019-03-24T16:10:22.335Z,5.20
2019-03-24T16:12:51.513Z,9.37
2019-03-24T16:15:20.726Z,5.13
2019-03-24T16:17:51.903Z,14.20
2019-03-24T16:20:20.796Z,7.63
2019-03-24T16:22:50.042Z,7.90
2019-03-24T16:25:19.227Z,7.40
2019-03-24T16:27:48.411Z,6.00
2019-03-24T16:30:17.601Z,5.23
2019-03-24T16:32:46.788Z,5.77
2019-03-24T16:35:16.007Z,4.50
2019-03-24T16:37:45.193Z,8.73
2019-03-24T16:40:14.461Z,3.63
2019-03-24T16:42:43.639Z,7.73
2019-03-24T16:45:12.895Z,8.30
2019-03-24T16:47:42.143Z,11.50
2019-03-24T16:50:11.519Z,9.57
2019-03-24T16:52:41.025Z,9.47
2019-03-24T16:55:12.205Z,11.30
2019-03-24T16:57:41.523Z,12.77
2019-03-24T17:00:10.858Z,6.50
2019-03-24T17:02:40.080Z,9.80
2019-03-24T17:05:09.693Z,9.17
2019-03-24T17:07:38.950Z,8.13
2019-03-24T17:10:08.766Z,7.30
2019-03-24T17:12:37.936Z,7.27
2019-03-24T17:15:07.791Z,9.33
2019-03-24T17:17:37.019Z,8.00
2019-03-24T17:20:10.175Z,9.33
2019-03-24T17:22:39.372Z,9.73
2019-03-24T17:25:09.392Z,10.07
2019-03-24T17:27:38.687Z,8.80
2019-03-24T17:30:10.453Z,10.47
2019-03-24T17:32:39.630Z,11.50
2019-03-24T17:35:09.063Z,7.70
2019-03-24T17:37:38.304Z,7.60
2019-03-24T17:40:09.540Z,4.77
2019-03-24T17:42:38.627Z,5.60
2019-03-24T17:45:10.101Z,5.70
2019-03-24T17:47:39.367Z,9.20
2019-03-24T17:50:11.903Z,5.53
2019-03-24T17:52:40.298Z,12.10
2019-03-24T17:55:10.287Z,8.13
2019-03-24T17:57:39.479Z,6.97
2019-03-24T18:00:12.487Z,9.80
2019-03-24T18:02:41.753Z,12.27
2019-03-24T18:05:11.574Z,5.80
2019-03-24T18:07:40.742Z,6.73
2019-03-24T18:10:10.772Z,5.53
2019-03-24T18:12:39.961Z,9.43
2019-03-24T18:15:10.062Z,6.13
2019-03-24T18:17:39.407Z,8.37
2019-03-24T18:20:10.593Z,7.53
2019-03-24T18:22:39.772Z,6.90
2019-03-24T18:25:09.375Z,9.43
2019-03-24T18:27:38.558Z,10.70
2019-03-24T18:30:10.670Z,6.90
2019-03-24T18:32:39.845Z,7.83
2019-03-24T18:35:10.168Z,12.53
2019-03-24T18:37:39.335Z,8.73
2019-03-24T18:40:09.466Z,9.43
2019-03-24T18:42:38.918Z,11.80
2019-03-24T18:45:10.650Z,11.53
2019-03-24T18:47:40.100Z,9.37
2019-03-24T18:50:10.739Z,6.70
2019-03-24T18:52:39.912Z,7.67
2019-03-24T18:55:09.743Z,7.60
2019-03-24T18:57:38.924Z,5.30
2019-03-24T19:00:10.340Z,4.87
2019-03-24T19:02:39.665Z,10.40
2019-03-24T19:05:09.385Z,8.13
2019-03-24T19:07:38.583Z,6.53
2019-03-24T19:10:08.906Z,11.60
2019-03-24T19:12:38.160Z,6.00
2019-03-24T19:15:09.776Z,8.67
2019-03-24T19:17:39.100Z,5.77
2019-03-24T19:20:09.095Z,6.70
2019-03-24T19:22:38.289Z,8.73
2019-03-24T19:25:08.600Z,9.63
2019-03-24T19:27:37.886Z,7.33
2019-03-24T19:30:14.847Z,7.73
2019-03-24T19:32:44.101Z,8.97
2019-03-24T19:35:13.794Z,5.33
2019-03-24T19:37:44.882Z,6.17
2019-03-24T19:40:28.114Z,5.07
2019-03-24T19:42:57.521Z,9.87
2019-03-24T19:45:26.695Z,10.17
2019-03-24T19:47:56.557Z,10.50
2019-03-24T19:50:26.383Z,5.57
2019-03-24T19:52:55.727Z,11.27
2019-03-24T19:55:25.017Z,8.37
2019-03-24T19:57:54.287Z,7.50
2019-03-24T20:00:23.555Z,6.60
2019-03-24T20:02:53.011Z,8.93
2019-03-24T20:05:22.222Z,10.20
2019-03-24T20:07:51.426Z,6.67
2019-03-24T20:10:20.699Z,7.50
2019-03-24T20:12:49.949Z,5.67
2019-03-24T20:15:19.257Z,6.37
2019-03-24T20:17:48.447Z,10.13
2019-03-24T20:20:17.715Z,9.90
2019-03-24T20:22:55.845Z,9.73
2019-03-24T20:25:17.775Z,5.20
2019-03-24T20:27:46.980Z,5.83
2019-03-24T20:30:16.600Z,6.93
2019-03-24T20:32:46.006Z,7.40
2019-03-24T20:35:15.744Z,7.33
2019-03-24T20:37:44.962Z,9.90
2019-03-24T20:40:14.323Z,6.57
2019-03-24T20:42:43.482Z,9.83
2019-03-24T20:45:12.804Z,9.97
2019-03-24T20:47:41.988Z,6.87
2019-03-24T20:50:11.434Z,5.90
2019-03-24T20:52:40.669Z,7.77
2019-03-24T20:55:10.075Z,10.57
2019-03-24T20:57:39.355Z,10.93
2019-03-24T21:00:09.344Z,7.17
2019-03-24T21:02:38.541Z,6.30
2019-03-24T21:05:07.786Z,8.50
2019-03-24T21:07:36.994Z,7.87
2019-03-24T21:10:07.233Z,9.03
2019-03-24T21:12:36.880Z,9.07
2019-03-24T21:15:11.453Z,8.10
2019-03-24T21:17:40.204Z,8.13
2019-03-24T21:20:09.558Z,7.97
2019-03-24T21:22:38.746Z,5.77
2019-03-24T21:25:08.044Z,10.00
2019-03-24T21:27:37.204Z,10.40
2019-03-24T21:30:13.994Z,3.53
2019-03-24T21:32:43.215Z,10.43
2019-03-24T21:35:12.484Z,8.90
2019-03-24T21:37:41.660Z,9.63
2019-03-24T21:40:11.204Z,6.93
2019-03-24T21:42:40.381Z,7.33
2019-03-24T21:45:09.819Z,11.43
2019-03-24T21:47:38.996Z,7.70
2019-03-24T21:50:08.613Z,7.80
2019-03-24T21:52:37.817Z,8.03
2019-03-24T21:55:07.364Z,8.23
2019-03-24T21:57:36.496Z,7.27
2019-03-24T22:00:10.106Z,12.10
2019-03-24T22:02:39.292Z,9.57
2019-03-24T22:05:08.817Z,8.67
2019-03-24T22:07:37.994Z,10.43
2019-03-24T22:10:07.313Z,7.30
2019-03-24T22:12:36.509Z,8.77
2019-03-24T22:15:09.499Z,8.40
2019-03-24T22:17:38.642Z,7.00
2019-03-24T22:20:07.996Z,8.43
2019-03-24T22:22:37.178Z,9.67
2019-03-24T22:25:06.710Z,12.60
2019-03-24T22:27:35.883Z,8.27
2019-03-24T22:30:08.571Z,14.53
2019-03-24T22:32:37.748Z,7.13
2019-03-24T22:35:07.547Z,7.27
2019-03-24T22:37:36.670Z,12.40
2019-03-24T22:40:09.189Z,9.00
2019-03-24T22:42:38.378Z,9.90
2019-03-24T22:45:07.906Z,10.83
2019-03-24T22:47:37.067Z,8.70
2019-03-24T22:50:08.152Z,9.90
2019-03-24T22:52:37.562Z,8.27
2019-03-24T22:55:07.485Z,12.43
2019-03-24T22:57:36.665Z,14.37
2019-03-24T23:00:13.701Z,11.17
2019-03-24T23:02:43.070Z,8.03
2019-03-24T23:05:12.433Z,11.80
2019-03-24T23:07:41.585Z,11.80
2019-03-24T23:10:10.932Z,15.40
2019-03-24T23:12:40.110Z,8.13
2019-03-24T23:15:09.556Z,6.83
2019-03-24T23:17:38.728Z,12.10
2019-03-24T23:20:07.981Z,7.03
2019-03-24T23:22:37.158Z,7.53
2019-03-24T23:25:07.576Z,12.17
2019-03-24T23:27:36.772Z,7.53
2019-03-24T23:30:10.471Z,5.43
2019-03-24T23:32:39.634Z,6.90
2019-03-24T23:35:08.973Z,8.23
2019-03-24T23:37:38.196Z,5.50
2019-03-24T23:40:08.479Z,8.40
2019-03-24T23:42:37.750Z,5.77
2019-03-24T23:45:08.176Z,7.13
2019-03-24T23:47:37.369Z,7.07
2019-03-24T23:50:06.969Z,7.03
2019-03-24T23:52:36.156Z,7.20
2019-03-24T23:55:06.281Z,10.00
2019-03-24T23:57:35.496Z,5.07
